sensor_id;sensor_type;location;lat;lon;timestamp;P1;durP1;ratioP1;P2;durP2;ratioP2
11046;SDS011;5576;50.008;10.596;2023-02-08T00:01:50;12.50;;;10.30;;
11046;SDS011;5576;50.008;10.596;2023-02-08T00:04:16;11.10;;;9.33;;
11046;SDS011;5576;50.008;10.596;2023-02-08T00:06:42;11.63;;;9.52;;
11046;SDS011;5576;50.008;10.596;2023-02-08T00:09:08;10.25;;;9.20;;
11046;SDS011;5576;50.008;10.596;2023-02-08T00:11:34;10.85;;;9.60;;
11046;SDS011;5576;50.008;10.596;2023-02-08T00:14:00;10.98;;;9.40;;
11046;SDS011;5576;50.008;10.596;2023-02-08T00:16:25;11.23;;;9.33;;
11046;SDS011;5576;50.008;10.596;2023-02-08T00:18:51;10.18;;;9.13;;
11046;SDS011;5576;50.008;10.596;2023-02-08T00:21:17;10.43;;;9.15;;
11046;SDS011;5576;50.008;10.596;2023-02-08T00:23:44;10.93;;;9.25;;
11046;SDS011;5576;50.008;10.596;2023-02-08T00:26:10;11.30;;;9.27;;
11046;SDS011;5576;50.008;10.596;2023-02-08T00:28:37;10.15;;;9.05;;
11046;SDS011;5576;50.008;10.596;2023-02-08T00:31:03;10.82;;;9.55;;
11046;SDS011;5576;50.008;10.596;2023-02-08T00:33:29;11.88;;;10.25;;
11046;SDS011;5576;50.008;10.596;2023-02-08T00:35:58;11.27;;;9.70;;
11046;SDS011;5576;50.008;10.596;2023-02-08T00:38:27;10.90;;;9.45;;
11046;SDS011;5576;50.008;10.596;2023-02-08T00:40:53;10.40;;;9.02;;
11046;SDS011;5576;50.008;10.596;2023-02-08T00:43:19;11.55;;;9.80;;
11046;SDS011;5576;50.008;10.596;2023-02-08T00:45:44;12.00;;;10.45;;
11046;SDS011;5576;50.008;10.596;2023-02-08T00:48:10;11.23;;;9.63;;
11046;SDS011;5576;50.008;10.596;2023-02-08T00:50:36;11.48;;;9.30;;
11046;SDS011;5576;50.008;10.596;2023-02-08T00:53:01;11.50;;;9.37;;
11046;SDS011;5576;50.008;10.596;2023-02-08T00:55:27;12.32;;;10.60;;
11046;SDS011;5576;50.008;10.596;2023-02-08T00:57:53;12.90;;;9.80;;
11046;SDS011;5576;50.008;10.596;2023-02-08T01:00:19;13.87;;;11.27;;
11046;SDS011;5576;50.008;10.596;2023-02-08T01:02:45;13.90;;;11.20;;
11046;SDS011;5576;50.008;10.596;2023-02-08T01:05:10;10.20;;;8.70;;
11046;SDS011;5576;50.008;10.596;2023-02-08T01:07:38;9.63;;;8.30;;
11046;SDS011;5576;50.008;10.596;2023-02-08T01:10:04;9.60;;;8.25;;
11046;SDS011;5576;50.008;10.596;2023-02-08T01:12:33;10.65;;;8.45;;
11046;SDS011;5576;50.008;10.596;2023-02-08T01:14:58;9.67;;;8.10;;
11046;SDS011;5576;50.008;10.596;2023-02-08T01:17:24;9.98;;;8.10;;
11046;SDS011;5576;50.008;10.596;2023-02-08T01:19:50;9.27;;;8.30;;
11046;SDS011;5576;50.008;10.596;2023-02-08T01:22:16;9.80;;;8.60;;
11046;SDS011;5576;50.008;10.596;2023-02-08T01:24:42;9.40;;;8.00;;
11046;SDS011;5576;50.008;10.596;2023-02-08T01:27:08;10.13;;;8.25;;
11046;SDS011;5576;50.008;10.596;2023-02-08T01:29:34;9.18;;;8.05;;
11046;SDS011;5576;50.008;10.596;2023-02-08T01:31:59;9.30;;;7.80;;
11046;SDS011;5576;50.008;10.596;2023-02-08T01:34:27;9.02;;;8.13;;
11046;SDS011;5576;50.008;10.596;2023-02-08T01:36:53;10.15;;;8.60;;
11046;SDS011;5576;50.008;10.596;2023-02-08T01:39:19;10.17;;;8.63;;
11046;SDS011;5576;50.008;10.596;2023-02-08T01:41:45;10.88;;;9.00;;
11046;SDS011;5576;50.008;10.596;2023-02-08T01:46:42;9.87;;;8.63;;
11046;SDS011;5576;50.008;10.596;2023-02-08T01:49:11;9.57;;;7.97;;
11046;SDS011;5576;50.008;10.596;2023-02-08T01:54:33;9.68;;;8.60;;
11046;SDS011;5576;50.008;10.596;2023-02-08T01:57:03;9.13;;;8.13;;
11046;SDS011;5576;50.008;10.596;2023-02-08T01:59:32;9.90;;;8.40;;
11046;SDS011;5576;50.008;10.596;2023-02-08T02:02:02;10.05;;;8.75;;
11046;SDS011;5576;50.008;10.596;2023-02-08T02:04:31;10.63;;;9.25;;
11046;SDS011;5576;50.008;10.596;2023-02-08T02:06:58;10.00;;;8.40;;
11046;SDS011;5576;50.008;10.596;2023-02-08T02:09:44;8.93;;;8.03;;
11046;SDS011;5576;50.008;10.596;2023-02-08T02:12:12;9.80;;;8.32;;
11046;SDS011;5576;50.008;10.596;2023-02-08T02:14:39;11.27;;;9.20;;
11046;SDS011;5576;50.008;10.596;2023-02-08T02:17:05;10.73;;;9.35;;
11046;SDS011;5576;50.008;10.596;2023-02-08T02:28:08;10.20;;;9.00;;
11046;SDS011;5576;50.008;10.596;2023-02-08T02:33:29;9.65;;;8.63;;
11046;SDS011;5576;50.008;10.596;2023-02-08T02:36:27;9.63;;;8.50;;
11046;SDS011;5576;50.008;10.596;2023-02-08T02:39:19;10.00;;;8.65;;
11046;SDS011;5576;50.008;10.596;2023-02-08T02:41:53;11.00;;;9.07;;
11046;SDS011;5576;50.008;10.596;2023-02-08T02:45:11;10.35;;;8.80;;
11046;SDS011;5576;50.008;10.596;2023-02-08T02:47:48;10.57;;;9.00;;
11046;SDS011;5576;50.008;10.596;2023-02-08T02:50:23;10.30;;;8.75;;
11046;SDS011;5576;50.008;10.596;2023-02-08T02:52:57;10.33;;;9.07;;
11046;SDS011;5576;50.008;10.596;2023-02-08T02:55:28;10.48;;;9.05;;
11046;SDS011;5576;50.008;10.596;2023-02-08T02:57:59;9.80;;;8.57;;
11046;SDS011;5576;50.008;10.596;2023-02-08T03:00:25;10.77;;;9.18;;
11046;SDS011;5576;50.008;10.596;2023-02-08T03:02:55;10.65;;;8.95;;
11046;SDS011;5576;50.008;10.596;2023-02-08T03:05:22;10.25;;;9.15;;
11046;SDS011;5576;50.008;10.596;2023-02-08T03:10:47;12.13;;;9.43;;
11046;SDS011;5576;50.008;10.596;2023-02-08T03:16:30;14.17;;;10.97;;
11046;SDS011;5576;50.008;10.596;2023-02-08T03:19:05;13.60;;;10.63;;
11046;SDS011;5576;50.008;10.596;2023-02-08T03:24:06;12.60;;;10.20;;
11046;SDS011;5576;50.008;10.596;2023-02-08T03:26:59;12.63;;;10.07;;
11046;SDS011;5576;50.008;10.596;2023-02-08T03:29:38;12.82;;;10.30;;
11046;SDS011;5576;50.008;10.596;2023-02-08T03:32:27;11.18;;;9.43;;
11046;SDS011;5576;50.008;10.596;2023-02-08T03:35:01;11.45;;;9.77;;
11046;SDS011;5576;50.008;10.596;2023-02-08T03:37:31;12.18;;;10.10;;
11046;SDS011;5576;50.008;10.596;2023-02-08T03:42:48;11.50;;;9.80;;
11046;SDS011;5576;50.008;10.596;2023-02-08T03:45:18;11.60;;;10.00;;
11046;SDS011;5576;50.008;10.596;2023-02-08T03:47:55;11.32;;;10.00;;
11046;SDS011;5576;50.008;10.596;2023-02-08T03:50:24;11.23;;;9.90;;
11046;SDS011;5576;50.008;10.596;2023-02-08T03:52:52;12.33;;;9.67;;
11046;SDS011;5576;50.008;10.596;2023-02-08T03:55:21;11.25;;;9.63;;
11046;SDS011;5576;50.008;10.596;2023-02-08T04:00:20;11.77;;;9.77;;
11046;SDS011;5576;50.008;10.596;2023-02-08T04:02:58;11.50;;;9.80;;
11046;SDS011;5576;50.008;10.596;2023-02-08T04:05:30;11.55;;;10.05;;
11046;SDS011;5576;50.008;10.596;2023-02-08T04:07:57;10.95;;;9.40;;
11046;SDS011;5576;50.008;10.596;2023-02-08T04:10:22;10.27;;;8.98;;
11046;SDS011;5576;50.008;10.596;2023-02-08T04:12:48;11.03;;;9.70;;
11046;SDS011;5576;50.008;10.596;2023-02-08T04:15:14;11.48;;;10.07;;
11046;SDS011;5576;50.008;10.596;2023-02-08T04:17:40;11.30;;;9.98;;
11046;SDS011;5576;50.008;10.596;2023-02-08T04:20:06;12.63;;;10.55;;
11046;SDS011;5576;50.008;10.596;2023-02-08T04:22:32;11.73;;;9.82;;
11046;SDS011;5576;50.008;10.596;2023-02-08T04:24:58;10.90;;;9.70;;
11046;SDS011;5576;50.008;10.596;2023-02-08T04:27:24;11.38;;;10.18;;
11046;SDS011;5576;50.008;10.596;2023-02-08T04:29:50;11.23;;;9.90;;
11046;SDS011;5576;50.008;10.596;2023-02-08T04:32:16;10.55;;;9.27;;
11046;SDS011;5576;50.008;10.596;2023-02-08T04:34:41;11.90;;;10.27;;
11046;SDS011;5576;50.008;10.596;2023-02-08T04:37:07;11.63;;;10.05;;
11046;SDS011;5576;50.008;10.596;2023-02-08T04:39:35;11.00;;;9.32;;
11046;SDS011;5576;50.008;10.596;2023-02-08T04:42:00;10.93;;;9.68;;
11046;SDS011;5576;50.008;10.596;2023-02-08T04:44:26;13.37;;;11.10;;
11046;SDS011;5576;50.008;10.596;2023-02-08T04:46:52;12.43;;;10.32;;
11046;SDS011;5576;50.008;10.596;2023-02-08T04:49:18;13.73;;;11.05;;
11046;SDS011;5576;50.008;10.596;2023-02-08T04:51:43;12.43;;;10.50;;
11046;SDS011;5576;50.008;10.596;2023-02-08T04:54:09;13.45;;;10.80;;
11046;SDS011;5576;50.008;10.596;2023-02-08T04:56:35;13.67;;;11.07;;
11046;SDS011;5576;50.008;10.596;2023-02-08T04:59:01;13.90;;;11.40;;
11046;SDS011;5576;50.008;10.596;2023-02-08T05:01:27;12.77;;;10.48;;
11046;SDS011;5576;50.008;10.596;2023-02-08T05:03:53;12.75;;;11.23;;
11046;SDS011;5576;50.008;10.596;2023-02-08T05:06:19;11.27;;;10.07;;
11046;SDS011;5576;50.008;10.596;2023-02-08T05:08:45;11.38;;;10.18;;
11046;SDS011;5576;50.008;10.596;2023-02-08T05:11:11;12.10;;;10.57;;
11046;SDS011;5576;50.008;10.596;2023-02-08T05:13:36;12.00;;;10.70;;
11046;SDS011;5576;50.008;10.596;2023-02-08T05:16:02;12.43;;;10.88;;
11046;SDS011;5576;50.008;10.596;2023-02-08T05:18:28;12.97;;;11.30;;
11046;SDS011;5576;50.008;10.596;2023-02-08T05:20:55;13.35;;;11.38;;
11046;SDS011;5576;50.008;10.596;2023-02-08T05:23:22;12.97;;;11.37;;
11046;SDS011;5576;50.008;10.596;2023-02-08T05:25:48;13.65;;;11.68;;
11046;SDS011;5576;50.008;10.596;2023-02-08T05:28:14;13.77;;;11.57;;
11046;SDS011;5576;50.008;10.596;2023-02-08T05:30:40;15.75;;;12.98;;
11046;SDS011;5576;50.008;10.596;2023-02-08T05:33:06;16.95;;;14.45;;
11046;SDS011;5576;50.008;10.596;2023-02-08T05:35:31;20.60;;;16.47;;
11046;SDS011;5576;50.008;10.596;2023-02-08T05:37:57;17.85;;;14.63;;
11046;SDS011;5576;50.008;10.596;2023-02-08T05:40:23;18.37;;;14.93;;
11046;SDS011;5576;50.008;10.596;2023-02-08T05:42:48;17.67;;;14.75;;
11046;SDS011;5576;50.008;10.596;2023-02-08T05:45:14;15.85;;;12.82;;
11046;SDS011;5576;50.008;10.596;2023-02-08T05:47:40;15.25;;;13.48;;
11046;SDS011;5576;50.008;10.596;2023-02-08T05:50:06;16.77;;;14.60;;
11046;SDS011;5576;50.008;10.596;2023-02-08T05:52:32;15.90;;;13.70;;
11046;SDS011;5576;50.008;10.596;2023-02-08T05:54:58;16.42;;;14.68;;
11046;SDS011;5576;50.008;10.596;2023-02-08T05:57:24;15.63;;;14.03;;
11046;SDS011;5576;50.008;10.596;2023-02-08T05:59:49;15.37;;;13.37;;
11046;SDS011;5576;50.008;10.596;2023-02-08T06:02:15;14.70;;;12.48;;
11046;SDS011;5576;50.008;10.596;2023-02-08T06:04:41;13.50;;;12.10;;
11046;SDS011;5576;50.008;10.596;2023-02-08T06:07:06;13.75;;;11.80;;
11046;SDS011;5576;50.008;10.596;2023-02-08T06:09:32;14.97;;;12.27;;
11046;SDS011;5576;50.008;10.596;2023-02-08T06:11:59;15.45;;;13.48;;
11046;SDS011;5576;50.008;10.596;2023-02-08T06:14:24;15.23;;;13.55;;
11046;SDS011;5576;50.008;10.596;2023-02-08T06:16:50;16.60;;;13.97;;
11046;SDS011;5576;50.008;10.596;2023-02-08T06:19:16;16.27;;;14.55;;
11046;SDS011;5576;50.008;10.596;2023-02-08T06:21:42;15.88;;;13.73;;
11046;SDS011;5576;50.008;10.596;2023-02-08T06:24:08;13.97;;;12.23;;
11046;SDS011;5576;50.008;10.596;2023-02-08T06:26:35;18.40;;;16.42;;
11046;SDS011;5576;50.008;10.596;2023-02-08T06:29:01;17.67;;;15.10;;
11046;SDS011;5576;50.008;10.596;2023-02-08T06:31:27;15.98;;;14.15;;
11046;SDS011;5576;50.008;10.596;2023-02-08T06:33:52;13.35;;;11.95;;
11046;SDS011;5576;50.008;10.596;2023-02-08T06:36:18;14.97;;;12.47;;
11046;SDS011;5576;50.008;10.596;2023-02-08T06:38:44;15.70;;;13.70;;
11046;SDS011;5576;50.008;10.596;2023-02-08T06:41:09;15.23;;;13.03;;
11046;SDS011;5576;50.008;10.596;2023-02-08T06:43:35;16.67;;;14.88;;
11046;SDS011;5576;50.008;10.596;2023-02-08T06:46:01;14.07;;;11.73;;
11046;SDS011;5576;50.008;10.596;2023-02-08T06:48:29;19.45;;;15.45;;
11046;SDS011;5576;50.008;10.596;2023-02-08T06:50:55;48.03;;;32.30;;
11046;SDS011;5576;50.008;10.596;2023-02-08T06:53:21;54.53;;;36.92;;
11046;SDS011;5576;50.008;10.596;2023-02-08T06:55:47;64.23;;;41.27;;
11046;SDS011;5576;50.008;10.596;2023-02-08T06:58:14;44.58;;;29.15;;
11046;SDS011;5576;50.008;10.596;2023-02-08T07:00:40;22.42;;;16.98;;
11046;SDS011;5576;50.008;10.596;2023-02-08T07:03:06;23.50;;;17.37;;
11046;SDS011;5576;50.008;10.596;2023-02-08T07:05:33;27.30;;;21.88;;
11046;SDS011;5576;50.008;10.596;2023-02-08T07:07:59;16.70;;;14.05;;
11046;SDS011;5576;50.008;10.596;2023-02-08T07:10:25;18.98;;;16.73;;
11046;SDS011;5576;50.008;10.596;2023-02-08T07:12:51;16.63;;;13.90;;
11046;SDS011;5576;50.008;10.596;2023-02-08T07:15:17;17.02;;;13.82;;
11046;SDS011;5576;50.008;10.596;2023-02-08T07:17:42;17.63;;;15.02;;
11046;SDS011;5576;50.008;10.596;2023-02-08T07:20:08;19.07;;;15.83;;
11046;SDS011;5576;50.008;10.596;2023-02-08T07:22:36;23.38;;;18.92;;
11046;SDS011;5576;50.008;10.596;2023-02-08T07:25:03;26.98;;;21.95;;
11046;SDS011;5576;50.008;10.596;2023-02-08T07:27:31;28.35;;;22.92;;
11046;SDS011;5576;50.008;10.596;2023-02-08T07:29:57;28.13;;;22.50;;
11046;SDS011;5576;50.008;10.596;2023-02-08T07:32:23;27.20;;;21.40;;
11046;SDS011;5576;50.008;10.596;2023-02-08T07:34:48;24.83;;;19.48;;
11046;SDS011;5576;50.008;10.596;2023-02-08T07:37:14;22.25;;;18.15;;
11046;SDS011;5576;50.008;10.596;2023-02-08T07:39:40;22.60;;;17.73;;
11046;SDS011;5576;50.008;10.596;2023-02-08T07:42:07;24.27;;;19.38;;
11046;SDS011;5576;50.008;10.596;2023-02-08T07:44:44;31.65;;;22.70;;
11046;SDS011;5576;50.008;10.596;2023-02-08T07:47:10;32.38;;;24.50;;
11046;SDS011;5576;50.008;10.596;2023-02-08T07:49:35;30.83;;;23.80;;
11046;SDS011;5576;50.008;10.596;2023-02-08T07:52:01;34.15;;;26.33;;
11046;SDS011;5576;50.008;10.596;2023-02-08T07:54:28;33.88;;;24.25;;
11046;SDS011;5576;50.008;10.596;2023-02-08T07:56:54;35.28;;;26.25;;
11046;SDS011;5576;50.008;10.596;2023-02-08T07:59:20;34.83;;;26.73;;
11046;SDS011;5576;50.008;10.596;2023-02-08T08:01:46;33.78;;;26.08;;
11046;SDS011;5576;50.008;10.596;2023-02-08T08:04:11;32.13;;;24.43;;
11046;SDS011;5576;50.008;10.596;2023-02-08T08:06:37;29.08;;;23.45;;
11046;SDS011;5576;50.008;10.596;2023-02-08T08:09:03;24.80;;;20.60;;
11046;SDS011;5576;50.008;10.596;2023-02-08T08:11:29;28.15;;;21.23;;
11046;SDS011;5576;50.008;10.596;2023-02-08T08:13:55;20.88;;;18.50;;
11046;SDS011;5576;50.008;10.596;2023-02-08T08:16:21;23.57;;;19.80;;
11046;SDS011;5576;50.008;10.596;2023-02-08T08:18:47;25.58;;;18.33;;
11046;SDS011;5576;50.008;10.596;2023-02-08T08:21:13;22.42;;;17.63;;
11046;SDS011;5576;50.008;10.596;2023-02-08T08:23:40;22.50;;;18.25;;
11046;SDS011;5576;50.008;10.596;2023-02-08T08:26:15;30.08;;;23.75;;
11046;SDS011;5576;50.008;10.596;2023-02-08T08:28:42;30.70;;;23.92;;
11046;SDS011;5576;50.008;10.596;2023-02-08T08:31:11;23.88;;;18.83;;
11046;SDS011;5576;50.008;10.596;2023-02-08T08:33:39;39.43;;;34.00;;
11046;SDS011;5576;50.008;10.596;2023-02-08T08:36:05;51.30;;;41.92;;
11046;SDS011;5576;50.008;10.596;2023-02-08T08:38:32;65.57;;;51.72;;
11046;SDS011;5576;50.008;10.596;2023-02-08T08:40:57;75.23;;;58.20;;
11046;SDS011;5576;50.008;10.596;2023-02-08T08:43:23;42.22;;;34.25;;
11046;SDS011;5576;50.008;10.596;2023-02-08T08:45:48;28.23;;;22.97;;
11046;SDS011;5576;50.008;10.596;2023-02-08T08:48:14;23.25;;;18.95;;
11046;SDS011;5576;50.008;10.596;2023-02-08T08:50:40;19.23;;;16.67;;
11046;SDS011;5576;50.008;10.596;2023-02-08T08:53:07;19.38;;;16.58;;
11046;SDS011;5576;50.008;10.596;2023-02-08T08:55:33;19.97;;;16.67;;
11046;SDS011;5576;50.008;10.596;2023-02-08T08:57:59;18.77;;;15.73;;
11046;SDS011;5576;50.008;10.596;2023-02-08T09:00:24;21.30;;;16.45;;
11046;SDS011;5576;50.008;10.596;2023-02-08T09:02:51;18.85;;;15.82;;
11046;SDS011;5576;50.008;10.596;2023-02-08T09:05:17;18.33;;;15.27;;
11046;SDS011;5576;50.008;10.596;2023-02-08T09:07:42;20.20;;;15.70;;
11046;SDS011;5576;50.008;10.596;2023-02-08T09:10:08;20.17;;;15.85;;
11046;SDS011;5576;50.008;10.596;2023-02-08T09:12:34;20.10;;;16.33;;
11046;SDS011;5576;50.008;10.596;2023-02-08T09:15:00;30.50;;;21.27;;
11046;SDS011;5576;50.008;10.596;2023-02-08T09:17:25;22.35;;;17.00;;
11046;SDS011;5576;50.008;10.596;2023-02-08T09:19:51;21.65;;;17.25;;
11046;SDS011;5576;50.008;10.596;2023-02-08T09:22:17;20.20;;;16.27;;
11046;SDS011;5576;50.008;10.596;2023-02-08T09:24:43;20.73;;;16.00;;
11046;SDS011;5576;50.008;10.596;2023-02-08T09:27:09;21.70;;;16.95;;
11046;SDS011;5576;50.008;10.596;2023-02-08T09:29:35;19.93;;;16.80;;
11046;SDS011;5576;50.008;10.596;2023-02-08T09:32:00;20.45;;;16.52;;
11046;SDS011;5576;50.008;10.596;2023-02-08T09:34:26;22.17;;;18.88;;
11046;SDS011;5576;50.008;10.596;2023-02-08T09:36:52;22.27;;;18.07;;
11046;SDS011;5576;50.008;10.596;2023-02-08T09:39:19;22.42;;;17.23;;
11046;SDS011;5576;50.008;10.596;2023-02-08T09:50:26;20.70;;;16.90;;
11046;SDS011;5576;50.008;10.596;2023-02-08T09:53:01;22.33;;;18.48;;
11046;SDS011;5576;50.008;10.596;2023-02-08T09:55:36;22.27;;;16.48;;
11046;SDS011;5576;50.008;10.596;2023-02-08T09:58:25;18.75;;;15.57;;
11046;SDS011;5576;50.008;10.596;2023-02-08T10:00:53;17.85;;;15.23;;
11046;SDS011;5576;50.008;10.596;2023-02-08T10:03:36;19.90;;;15.68;;
11046;SDS011;5576;50.008;10.596;2023-02-08T10:06:04;20.67;;;16.20;;
11046;SDS011;5576;50.008;10.596;2023-02-08T10:08:33;20.38;;;15.43;;
11046;SDS011;5576;50.008;10.596;2023-02-08T10:13:59;19.48;;;15.48;;
11046;SDS011;5576;50.008;10.596;2023-02-08T10:19:39;19.27;;;14.90;;
11046;SDS011;5576;50.008;10.596;2023-02-08T10:22:29;19.55;;;14.98;;
11046;SDS011;5576;50.008;10.596;2023-02-08T10:28:00;17.95;;;14.75;;
11046;SDS011;5576;50.008;10.596;2023-02-08T10:30:44;19.00;;;14.60;;
11046;SDS011;5576;50.008;10.596;2023-02-08T10:33:16;17.42;;;14.15;;
11046;SDS011;5576;50.008;10.596;2023-02-08T10:35:47;18.80;;;14.98;;
11046;SDS011;5576;50.008;10.596;2023-02-08T10:40:46;18.73;;;14.13;;
11046;SDS011;5576;50.008;10.596;2023-02-08T10:45:48;17.48;;;13.95;;
11046;SDS011;5576;50.008;10.596;2023-02-08T10:48:41;17.42;;;13.15;;
11046;SDS011;5576;50.008;10.596;2023-02-08T10:51:17;17.05;;;13.23;;
11046;SDS011;5576;50.008;10.596;2023-02-08T10:53:45;16.67;;;13.50;;
11046;SDS011;5576;50.008;10.596;2023-02-08T10:56:16;17.50;;;13.65;;
11046;SDS011;5576;50.008;10.596;2023-02-08T10:58:48;17.73;;;13.75;;
11046;SDS011;5576;50.008;10.596;2023-02-08T11:01:14;15.75;;;12.65;;
11046;SDS011;5576;50.008;10.596;2023-02-08T11:03:41;18.57;;;13.30;;
11046;SDS011;5576;50.008;10.596;2023-02-08T11:06:26;17.33;;;13.70;;
11046;SDS011;5576;50.008;10.596;2023-02-08T11:08:53;16.57;;;13.10;;
11046;SDS011;5576;50.008;10.596;2023-02-08T11:11:20;16.23;;;13.10;;
11046;SDS011;5576;50.008;10.596;2023-02-08T11:13:47;16.75;;;13.63;;
11046;SDS011;5576;50.008;10.596;2023-02-08T11:16:23;15.60;;;13.35;;
11046;SDS011;5576;50.008;10.596;2023-02-08T11:18:55;16.00;;;13.20;;
11046;SDS011;5576;50.008;10.596;2023-02-08T11:21:25;15.77;;;12.80;;
11046;SDS011;5576;50.008;10.596;2023-02-08T11:23:54;15.77;;;13.20;;
11046;SDS011;5576;50.008;10.596;2023-02-08T11:26:24;15.43;;;12.35;;
11046;SDS011;5576;50.008;10.596;2023-02-08T11:29:00;16.58;;;12.55;;
11046;SDS011;5576;50.008;10.596;2023-02-08T11:37:01;14.83;;;11.83;;
11046;SDS011;5576;50.008;10.596;2023-02-08T11:39:41;14.50;;;11.77;;
11046;SDS011;5576;50.008;10.596;2023-02-08T11:42:17;15.30;;;11.88;;
11046;SDS011;5576;50.008;10.596;2023-02-08T11:44:46;28.55;;;14.45;;
11046;SDS011;5576;50.008;10.596;2023-02-08T11:47:14;19.85;;;12.27;;
11046;SDS011;5576;50.008;10.596;2023-02-08T11:49:42;16.08;;;12.13;;
11046;SDS011;5576;50.008;10.596;2023-02-08T11:52:18;16.08;;;11.85;;
11046;SDS011;5576;50.008;10.596;2023-02-08T11:54:49;15.63;;;11.00;;
11046;SDS011;5576;50.008;10.596;2023-02-08T11:57:17;12.60;;;10.07;;
11046;SDS011;5576;50.008;10.596;2023-02-08T11:59:46;10.80;;;8.83;;
11046;SDS011;5576;50.008;10.596;2023-02-08T12:02:29;11.73;;;9.52;;
11046;SDS011;5576;50.008;10.596;2023-02-08T12:04:59;18.83;;;14.27;;
11046;SDS011;5576;50.008;10.596;2023-02-08T12:12:53;14.32;;;10.63;;
11046;SDS011;5576;50.008;10.596;2023-02-08T12:15:46;18.13;;;13.00;;
11046;SDS011;5576;50.008;10.596;2023-02-08T12:18:35;21.30;;;14.43;;
11046;SDS011;5576;50.008;10.596;2023-02-08T12:21:13;14.93;;;11.00;;
11046;SDS011;5576;50.008;10.596;2023-02-08T12:24:01;13.07;;;9.80;;
11046;SDS011;5576;50.008;10.596;2023-02-08T12:29:27;12.82;;;9.18;;
11046;SDS011;5576;50.008;10.596;2023-02-08T12:32:21;14.03;;;9.53;;
11046;SDS011;5576;50.008;10.596;2023-02-08T12:34:55;12.40;;;8.90;;
11046;SDS011;5576;50.008;10.596;2023-02-08T12:37:49;18.97;;;12.53;;
11046;SDS011;5576;50.008;10.596;2023-02-08T12:40:44;12.82;;;9.63;;
11046;SDS011;5576;50.008;10.596;2023-02-08T12:51:47;11.53;;;9.67;;
11046;SDS011;5576;50.008;10.596;2023-02-08T12:54:28;10.30;;;8.70;;
11046;SDS011;5576;50.008;10.596;2023-02-08T12:56:59;12.13;;;8.55;;
11046;SDS011;5576;50.008;10.596;2023-02-08T13:01:55;11.45;;;8.35;;
11046;SDS011;5576;50.008;10.596;2023-02-08T13:04:26;10.27;;;8.50;;
11046;SDS011;5576;50.008;10.596;2023-02-08T13:07:02;12.00;;;9.50;;
11046;SDS011;5576;50.008;10.596;2023-02-08T13:09:37;10.60;;;8.63;;
11046;SDS011;5576;50.008;10.596;2023-02-08T13:12:25;11.52;;;8.65;;
11046;SDS011;5576;50.008;10.596;2023-02-08T13:14:57;10.98;;;8.20;;
11046;SDS011;5576;50.008;10.596;2023-02-08T13:17:35;12.27;;;9.35;;
11046;SDS011;5576;50.008;10.596;2023-02-08T13:22:50;9.82;;;7.80;;
11046;SDS011;5576;50.008;10.596;2023-02-08T13:25:23;9.73;;;7.68;;
11046;SDS011;5576;50.008;10.596;2023-02-08T13:27:54;10.75;;;8.10;;
11046;SDS011;5576;50.008;10.596;2023-02-08T13:30:23;10.10;;;7.73;;
11046;SDS011;5576;50.008;10.596;2023-02-08T13:32:50;9.85;;;7.78;;
11046;SDS011;5576;50.008;10.596;2023-02-08T13:35:18;11.23;;;7.78;;
11046;SDS011;5576;50.008;10.596;2023-02-08T13:37:50;10.03;;;8.40;;
11046;SDS011;5576;50.008;10.596;2023-02-08T13:40:21;10.43;;;8.60;;
11046;SDS011;5576;50.008;10.596;2023-02-08T13:47:57;9.82;;;7.90;;
11046;SDS011;5576;50.008;10.596;2023-02-08T13:53:17;11.43;;;8.75;;
11046;SDS011;5576;50.008;10.596;2023-02-08T13:56:04;10.10;;;8.00;;
11046;SDS011;5576;50.008;10.596;2023-02-08T14:01:22;9.68;;;7.93;;
11046;SDS011;5576;50.008;10.596;2023-02-08T14:06:35;11.15;;;8.50;;
11046;SDS011;5576;50.008;10.596;2023-02-08T14:09:15;9.88;;;7.78;;
11046;SDS011;5576;50.008;10.596;2023-02-08T14:14:24;9.93;;;7.15;;
11046;SDS011;5576;50.008;10.596;2023-02-08T14:19:43;8.60;;;6.57;;
11046;SDS011;5576;50.008;10.596;2023-02-08T14:22:19;8.07;;;6.47;;
11046;SDS011;5576;50.008;10.596;2023-02-08T14:24:47;10.02;;;7.60;;
11046;SDS011;5576;50.008;10.596;2023-02-08T14:27:25;7.95;;;6.30;;
11046;SDS011;5576;50.008;10.596;2023-02-08T14:32:48;8.95;;;6.70;;
11046;SDS011;5576;50.008;10.596;2023-02-08T14:35:18;8.10;;;6.55;;
11046;SDS011;5576;50.008;10.596;2023-02-08T14:37:47;8.23;;;6.32;;
11046;SDS011;5576;50.008;10.596;2023-02-08T14:45:29;7.68;;;6.30;;
11046;SDS011;5576;50.008;10.596;2023-02-08T14:50:34;8.70;;;6.45;;
11046;SDS011;5576;50.008;10.596;2023-02-08T14:53:04;8.75;;;6.68;;
11046;SDS011;5576;50.008;10.596;2023-02-08T14:55:40;9.13;;;7.25;;
11046;SDS011;5576;50.008;10.596;2023-02-08T14:58:11;9.77;;;7.40;;
11046;SDS011;5576;50.008;10.596;2023-02-08T15:00:45;9.43;;;6.60;;
11046;SDS011;5576;50.008;10.596;2023-02-08T15:03:15;12.07;;;7.47;;
11046;SDS011;5576;50.008;10.596;2023-02-08T15:05:45;9.57;;;6.68;;
11046;SDS011;5576;50.008;10.596;2023-02-08T15:08:31;12.70;;;8.13;;
11046;SDS011;5576;50.008;10.596;2023-02-08T15:10:57;10.93;;;7.60;;
11046;SDS011;5576;50.008;10.596;2023-02-08T15:13:23;9.60;;;7.20;;
11046;SDS011;5576;50.008;10.596;2023-02-08T15:15:53;9.77;;;5.97;;
11046;SDS011;5576;50.008;10.596;2023-02-08T15:18:22;10.27;;;7.30;;
11046;SDS011;5576;50.008;10.596;2023-02-08T15:21:03;10.17;;;7.80;;
11046;SDS011;5576;50.008;10.596;2023-02-08T15:23:30;9.83;;;7.00;;
11046;SDS011;5576;50.008;10.596;2023-02-08T15:25:57;10.30;;;7.53;;
11046;SDS011;5576;50.008;10.596;2023-02-08T15:28:26;11.80;;;8.60;;
11046;SDS011;5576;50.008;10.596;2023-02-08T15:30:58;10.75;;;7.88;;
11046;SDS011;5576;50.008;10.596;2023-02-08T15:33:27;14.77;;;10.52;;
11046;SDS011;5576;50.008;10.596;2023-02-08T15:38:26;9.82;;;7.25;;
11046;SDS011;5576;50.008;10.596;2023-02-08T15:41:02;9.45;;;6.75;;
11046;SDS011;5576;50.008;10.596;2023-02-08T15:43:31;8.73;;;6.28;;
11046;SDS011;5576;50.008;10.596;2023-02-08T15:45:59;8.50;;;6.80;;
11046;SDS011;5576;50.008;10.596;2023-02-08T15:48:27;8.73;;;6.57;;
11046;SDS011;5576;50.008;10.596;2023-02-08T15:50:54;8.73;;;7.00;;
11046;SDS011;5576;50.008;10.596;2023-02-08T15:53:20;8.40;;;6.50;;
11046;SDS011;5576;50.008;10.596;2023-02-08T15:55:48;8.50;;;6.47;;
11046;SDS011;5576;50.008;10.596;2023-02-08T16:01:04;7.90;;;6.35;;
11046;SDS011;5576;50.008;10.596;2023-02-08T16:03:31;8.70;;;6.63;;
11046;SDS011;5576;50.008;10.596;2023-02-08T16:06:01;9.73;;;7.38;;
11046;SDS011;5576;50.008;10.596;2023-02-08T16:08:29;8.10;;;6.35;;
11046;SDS011;5576;50.008;10.596;2023-02-08T16:10:58;7.72;;;5.90;;
11046;SDS011;5576;50.008;10.596;2023-02-08T16:13:28;8.35;;;6.50;;
11046;SDS011;5576;50.008;10.596;2023-02-08T16:15:57;8.13;;;6.30;;
11046;SDS011;5576;50.008;10.596;2023-02-08T16:21:18;7.87;;;5.70;;
11046;SDS011;5576;50.008;10.596;2023-02-08T16:24:02;7.88;;;5.90;;
11046;SDS011;5576;50.008;10.596;2023-02-08T16:26:44;7.32;;;5.78;;
11046;SDS011;5576;50.008;10.596;2023-02-08T16:29:31;14.13;;;10.38;;
11046;SDS011;5576;50.008;10.596;2023-02-08T16:32:02;9.93;;;6.95;;
11046;SDS011;5576;50.008;10.596;2023-02-08T16:34:32;9.52;;;6.88;;
11046;SDS011;5576;50.008;10.596;2023-02-08T16:37:00;9.10;;;7.22;;
11046;SDS011;5576;50.008;10.596;2023-02-08T16:39:37;9.85;;;7.57;;
11046;SDS011;5576;50.008;10.596;2023-02-08T16:42:05;12.45;;;9.07;;
11046;SDS011;5576;50.008;10.596;2023-02-08T16:50:16;9.73;;;8.02;;